createdAt,value
2023-03-15T00:00:24.847Z,6.28
2023-03-15T00:02:52.059Z,6.34
2023-03-15T00:05:18.999Z,6.25
2023-03-15T00:07:45.808Z,6.28
2023-03-15T00:10:12.824Z,6.34
2023-03-15T00:12:42.681Z,6.33
2023-03-15T00:15:11.918Z,6.30
2023-03-15T00:17:38.902Z,6.33
2023-03-15T00:20:06.684Z,6.35
2023-03-15T00:22:33.867Z,6.36
2023-03-15T00:25:00.782Z,6.33
2023-03-15T00:27:27.883Z,6.40
2023-03-15T00:29:54.752Z,6.40
2023-03-15T00:32:21.721Z,6.42
2023-03-15T00:34:49.266Z,6.46
2023-03-15T00:37:17.186Z,6.48
2023-03-15T00:39:45.860Z,6.34
2023-03-15T00:42:16.536Z,6.47
2023-03-15T00:44:47.073Z,6.05
2023-03-15T00:47:14.832Z,6.50
2023-03-15T00:49:41.810Z,6.47
2023-03-15T00:52:09.028Z,6.56
2023-03-15T00:54:36.007Z,6.57
2023-03-15T00:57:03.537Z,6.55
2023-03-15T00:59:34.988Z,6.55
2023-03-15T01:02:03.347Z,6.57
2023-03-15T01:04:31.489Z,6.59
2023-03-15T01:06:58.995Z,6.42
2023-03-15T01:09:26.118Z,6.61
2023-03-15T01:11:53.050Z,6.63
2023-03-15T01:14:20.000Z,6.59
2023-03-15T01:16:47.222Z,6.52
2023-03-15T01:19:14.159Z,6.59
2023-03-15T01:21:41.523Z,6.65
2023-03-15T01:24:13.289Z,6.67
2023-03-15T01:26:41.786Z,6.56
2023-03-15T01:29:12.020Z,6.52
2023-03-15T01:31:39.696Z,6.64
2023-03-15T01:34:06.842Z,6.67
2023-03-15T01:36:33.672Z,6.63
2023-03-15T01:39:00.624Z,6.52
2023-03-15T01:41:35.060Z,6.60
2023-03-15T01:44:02.120Z,6.54
2023-03-15T01:46:34.447Z,6.42
2023-03-15T01:49:33.447Z,6.51
2023-03-15T01:52:13.152Z,6.47
2023-03-15T01:55:16.653Z,6.42
2023-03-15T01:58:02.563Z,6.38
2023-03-15T02:00:30.958Z,6.27
2023-03-15T02:03:15.391Z,6.21
2023-03-15T02:05:54.696Z,6.29
2023-03-15T02:08:46.828Z,6.26
2023-03-15T02:11:17.609Z,6.22
2023-03-15T02:13:45.357Z,6.01
2023-03-15T02:16:12.672Z,5.99
2023-03-15T02:18:48.092Z,5.96
2023-03-15T02:21:24.746Z,6.03
2023-03-15T02:24:05.888Z,5.99
2023-03-15T02:26:44.156Z,5.93
2023-03-15T02:29:12.020Z,5.90
2023-03-15T02:31:39.546Z,5.81
2023-03-15T02:34:07.724Z,5.86
2023-03-15T02:36:36.130Z,5.85
2023-03-15T02:39:14.801Z,5.83
2023-03-15T02:41:45.281Z,5.82
2023-03-15T02:44:18.116Z,5.76
2023-03-15T02:46:48.024Z,5.80
2023-03-15T02:49:17.121Z,5.72
2023-03-15T02:51:44.037Z,5.72
2023-03-15T02:54:11.556Z,5.67
2023-03-15T02:56:38.417Z,5.62
2023-03-15T02:59:05.573Z,5.51
2023-03-15T03:01:34.141Z,5.51
2023-03-15T03:04:01.207Z,5.50
2023-03-15T03:06:28.098Z,5.45
2023-03-15T03:08:55.519Z,5.40
2023-03-15T03:11:22.788Z,5.32
2023-03-15T03:13:51.244Z,5.32
2023-03-15T03:16:19.397Z,5.29
2023-03-15T03:18:46.272Z,5.27
2023-03-15T03:21:14.826Z,5.26
2023-03-15T03:23:46.348Z,5.26
2023-03-15T03:26:16.780Z,5.28
2023-03-15T03:28:47.235Z,5.31
2023-03-15T03:31:26.522Z,5.35
2023-03-15T03:33:56.715Z,5.39
2023-03-15T03:36:25.012Z,5.31
2023-03-15T03:38:53.743Z,5.37
2023-03-15T03:41:21.997Z,5.46
2023-03-15T03:43:49.468Z,5.41
2023-03-15T03:46:17.120Z,5.55
2023-03-15T03:48:48.730Z,5.46
2023-03-15T03:51:15.803Z,5.62
2023-03-15T03:53:42.739Z,5.35
2023-03-15T03:56:10.559Z,5.68
2023-03-15T03:58:37.864Z,5.69
2023-03-15T04:01:16.101Z,5.72
2023-03-15T04:03:44.986Z,5.78
2023-03-15T04:06:15.780Z,5.79
2023-03-15T04:08:45.739Z,5.80
2023-03-15T04:11:18.202Z,5.77
2023-03-15T04:13:51.379Z,5.84
2023-03-15T04:16:18.641Z,5.82
2023-03-15T04:18:58.182Z,5.60
2023-03-15T04:21:25.404Z,5.74
2023-03-15T04:24:02.126Z,5.76
2023-03-15T04:26:48.974Z,5.72
2023-03-15T04:29:25.804Z,5.76
2023-03-15T04:32:17.636Z,5.70
2023-03-15T04:34:51.862Z,5.69
2023-03-15T04:37:51.854Z,5.65
2023-03-15T04:40:37.444Z,5.64
2023-03-15T04:43:16.527Z,5.74
2023-03-15T04:46:10.005Z,5.72
2023-03-15T04:48:51.325Z,5.70
2023-03-15T04:51:36.548Z,5.67
2023-03-15T04:54:19.941Z,5.75
2023-03-15T04:57:02.772Z,5.74
2023-03-15T04:59:49.038Z,5.68
2023-03-15T05:02:31.858Z,5.72
2023-03-15T05:05:06.805Z,5.74
2023-03-15T05:07:53.916Z,5.82
2023-03-15T05:10:35.598Z,5.84
2023-03-15T05:13:09.434Z,5.90
2023-03-15T05:15:59.554Z,5.95
2023-03-15T05:18:38.137Z,5.98
2023-03-15T05:21:23.887Z,6.05
2023-03-15T05:24:23.534Z,6.09
2023-03-15T05:27:08.631Z,6.13
2023-03-15T05:29:58.928Z,6.19
2023-03-15T05:33:04.738Z,6.22
2023-03-15T05:35:37.544Z,6.33
2023-03-15T05:38:17.862Z,6.35
2023-03-15T05:41:10.981Z,6.51
2023-03-15T05:44:01.443Z,6.55
2023-03-15T05:46:37.900Z,6.64
2023-03-15T05:49:22.288Z,6.63
2023-03-15T05:52:03.361Z,6.69
2023-03-15T05:54:45.321Z,6.73
2023-03-15T05:57:31.449Z,6.65
2023-03-15T06:00:32.551Z,6.81
2023-03-15T06:03:07.746Z,6.79
2023-03-15T06:05:44.097Z,6.77
2023-03-15T06:08:15.864Z,6.91
2023-03-15T06:10:46.310Z,6.98
2023-03-15T06:13:13.559Z,7.28
2023-03-15T06:15:41.158Z,7.50
2023-03-15T06:18:10.342Z,7.95
2023-03-15T06:20:38.642Z,8.17
2023-03-15T06:23:10.768Z,8.41
2023-03-15T06:25:45.385Z,8.55
2023-03-15T06:28:13.117Z,8.57
2023-03-15T06:30:45.238Z,8.58
2023-03-15T06:33:12.748Z,8.58
2023-03-15T06:35:39.969Z,8.80
2023-03-15T06:38:07.087Z,8.95
2023-03-15T06:40:34.058Z,8.94
2023-03-15T06:43:06.042Z,9.12
2023-03-15T06:45:34.068Z,9.31
2023-03-15T06:48:01.689Z,9.54
2023-03-15T06:50:37.215Z,9.61
2023-03-15T06:53:11.508Z,9.54
2023-03-15T06:55:38.479Z,9.48
2023-03-15T06:58:05.524Z,9.58
2023-03-15T07:00:32.463Z,9.61
2023-03-15T07:02:59.558Z,9.43
2023-03-15T07:05:26.717Z,9.23
2023-03-15T07:07:53.592Z,8.91
2023-03-15T07:10:21.609Z,8.71
2023-03-15T07:12:48.469Z,8.88
2023-03-15T07:15:17.355Z,9.04
2023-03-15T07:17:44.484Z,8.98
2023-03-15T07:20:12.337Z,8.78
2023-03-15T07:22:39.285Z,9.13
2023-03-15T07:25:07.625Z,9.37
2023-03-15T07:27:34.588Z,9.59
2023-03-15T07:30:03.780Z,9.95
2023-03-15T07:32:32.065Z,10.07
2023-03-15T07:35:01.499Z,10.39
2023-03-15T07:37:30.016Z,10.35
2023-03-15T07:39:58.652Z,10.06
2023-03-15T07:42:25.615Z,10.33
2023-03-15T07:44:56.103Z,10.78
2023-03-15T07:47:23.284Z,10.99
2023-03-15T07:49:50.214Z,10.80
2023-03-15T07:52:17.699Z,10.73
2023-03-15T07:54:44.533Z,10.63
2023-03-15T07:57:11.426Z,10.11
2023-03-15T07:59:38.829Z,10.31
2023-03-15T08:02:05.979Z,10.51
2023-03-15T08:04:35.649Z,10.50
2023-03-15T08:07:03.763Z,10.19
2023-03-15T08:09:33.060Z,10.13
2023-03-15T08:12:00.137Z,9.99
2023-03-15T08:14:27.469Z,10.28
2023-03-15T08:16:54.347Z,10.59
2023-03-15T08:19:22.276Z,10.83
2023-03-15T08:21:49.302Z,11.27
2023-03-15T08:24:16.329Z,11.65
2023-03-15T08:26:43.404Z,11.84
2023-03-15T08:29:10.539Z,11.99
2023-03-15T08:31:37.537Z,12.40
2023-03-15T08:34:04.552Z,12.50
2023-03-15T08:36:32.783Z,12.46
2023-03-15T08:38:59.762Z,12.50
2023-03-15T08:41:26.974Z,12.57
2023-03-15T08:43:54.187Z,12.66
2023-03-15T08:46:22.117Z,12.66
2023-03-15T08:48:49.313Z,12.51
2023-03-15T08:51:16.278Z,12.68
2023-03-15T08:53:43.339Z,12.81
2023-03-15T08:56:10.408Z,12.79
2023-03-15T08:58:37.573Z,12.62
2023-03-15T09:01:07.427Z,12.59
2023-03-15T09:03:34.467Z,12.43
2023-03-15T09:06:01.667Z,12.56
2023-03-15T09:08:28.989Z,12.97
2023-03-15T09:10:57.258Z,13.31
2023-03-15T09:13:25.293Z,13.53
2023-03-15T09:15:53.513Z,13.32
2023-03-15T09:18:21.018Z,13.45
2023-03-15T09:20:48.270Z,13.35
2023-03-15T09:23:15.251Z,13.34
2023-03-15T09:25:42.350Z,13.40
2023-03-15T09:28:11.578Z,13.34
2023-03-15T09:30:40.853Z,13.27
2023-03-15T09:33:08.420Z,13.42
2023-03-15T09:35:35.711Z,13.12
2023-03-15T09:38:04.030Z,13.48
2023-03-15T09:40:40.245Z,13.91
2023-03-15T09:43:07.282Z,14.20
2023-03-15T09:45:52.987Z,14.43
2023-03-15T09:48:26.027Z,14.41
2023-03-15T09:51:01.578Z,14.79
2023-03-15T09:53:30.313Z,14.77
2023-03-15T09:55:58.982Z,14.84
2023-03-15T09:58:35.860Z,14.73
2023-03-15T10:01:07.262Z,14.69
2023-03-15T10:03:49.631Z,14.78
2023-03-15T10:06:20.685Z,14.70
2023-03-15T10:08:47.845Z,14.64
2023-03-15T10:11:23.508Z,14.67
2023-03-15T10:14:08.934Z,14.64
2023-03-15T10:16:46.939Z,14.62
2023-03-15T10:19:49.177Z,14.90
2023-03-15T10:22:25.891Z,14.78
2023-03-15T10:25:26.532Z,15.23
2023-03-15T10:28:01.770Z,15.40
2023-03-15T10:30:34.858Z,15.35
2023-03-15T10:33:32.270Z,15.18
2023-03-15T10:36:10.744Z,14.85
2023-03-15T10:38:39.028Z,14.64
2023-03-15T10:41:07.272Z,14.53
2023-03-15T10:43:37.496Z,14.37
2023-03-15T10:46:21.502Z,14.12
2023-03-15T10:48:58.601Z,13.98
2023-03-15T10:51:32.090Z,14.02
2023-03-15T10:54:02.495Z,14.07
2023-03-15T10:56:35.321Z,14.18
2023-03-15T10:59:12.355Z,14.29
2023-03-15T11:01:40.734Z,14.37
2023-03-15T11:04:19.128Z,14.43
2023-03-15T11:06:48.533Z,14.38
2023-03-15T11:09:22.901Z,14.34
2023-03-15T11:12:02.390Z,14.28
2023-03-15T11:14:45.032Z,14.21
2023-03-15T11:17:19.639Z,14.24
2023-03-15T11:19:55.159Z,14.36
2023-03-15T11:22:22.502Z,14.41
2023-03-15T11:24:52.600Z,14.34
2023-03-15T11:27:21.747Z,14.51
2023-03-15T11:29:55.918Z,14.66
2023-03-15T11:32:30.096Z,14.61
2023-03-15T11:35:05.406Z,14.55
2023-03-15T11:38:13.076Z,14.64
2023-03-15T11:40:50.938Z,14.56
2023-03-15T11:43:59.937Z,14.72
2023-03-15T11:46:33.089Z,14.82
2023-03-15T11:49:10.969Z,14.90
2023-03-15T11:51:38.317Z,14.98
2023-03-15T11:54:14.406Z,15.09
2023-03-15T11:56:44.500Z,15.17
2023-03-15T11:59:30.809Z,15.17
2023-03-15T12:02:21.483Z,15.23
2023-03-15T12:04:51.037Z,15.15
2023-03-15T12:07:18.713Z,15.23
2023-03-15T12:09:57.146Z,14.74
2023-03-15T12:12:24.342Z,14.48
2023-03-15T12:15:14.626Z,14.44
2023-03-15T12:17:49.901Z,14.28
2023-03-15T12:20:19.630Z,14.01
2023-03-15T12:22:53.980Z,13.87
2023-03-15T12:25:31.134Z,13.78
2023-03-15T12:27:59.787Z,13.58
2023-03-15T12:30:38.566Z,13.46
2023-03-15T12:33:14.799Z,13.45
2023-03-15T12:35:42.170Z,13.39
2023-03-15T12:38:19.349Z,13.25
2023-03-15T12:40:54.541Z,12.99
2023-03-15T12:43:44.166Z,12.91
2023-03-15T12:46:43.803Z,12.91
2023-03-15T12:49:13.645Z,12.80
2023-03-15T12:52:03.217Z,12.64
2023-03-15T12:54:37.591Z,12.36
2023-03-15T12:57:05.857Z,12.29
2023-03-15T12:59:51.835Z,12.24
2023-03-15T13:02:41.772Z,12.32
2023-03-15T13:05:10.117Z,12.43
2023-03-15T13:07:51.117Z,12.29
2023-03-15T13:10:34.529Z,12.37
2023-03-15T13:13:25.946Z,12.33
2023-03-15T13:16:20.049Z,12.51
2023-03-15T13:18:53.373Z,12.76
2023-03-15T13:21:31.083Z,12.97
2023-03-15T13:23:59.798Z,13.52
2023-03-15T13:26:38.711Z,13.93
2023-03-15T13:29:17.928Z,13.84
2023-03-15T13:31:46.657Z,13.93
2023-03-15T13:34:17.155Z,13.98
2023-03-15T13:36:58.682Z,14.17
2023-03-15T13:39:28.170Z,14.31
2023-03-15T13:42:00.378Z,14.42
2023-03-15T13:44:29.016Z,14.32
2023-03-15T13:46:56.929Z,14.10
2023-03-15T13:49:24.858Z,14.33
2023-03-15T13:51:53.774Z,14.57
2023-03-15T13:54:31.161Z,14.71
2023-03-15T13:57:14.424Z,14.59
2023-03-15T13:59:44.581Z,14.94
2023-03-15T14:02:18.642Z,15.02
2023-03-15T14:04:53.489Z,14.79
2023-03-15T14:07:29.630Z,14.44
2023-03-15T14:10:18.824Z,14.00
2023-03-15T14:12:47.110Z,13.58
2023-03-15T14:15:30.116Z,13.50
2023-03-15T14:18:03.357Z,13.43
2023-03-15T14:20:54.412Z,13.52
2023-03-15T14:23:25.548Z,13.39
2023-03-15T14:25:55.151Z,13.34
2023-03-15T14:28:25.434Z,13.17
2023-03-15T14:30:56.195Z,13.05
2023-03-15T14:33:24.519Z,12.96
2023-03-15T14:35:54.952Z,12.85
2023-03-15T14:38:24.786Z,12.39
2023-03-15T14:40:53.744Z,12.68
2023-03-15T14:43:20.999Z,12.59
2023-03-15T14:45:49.614Z,12.62
2023-03-15T14:48:30.152Z,12.64
2023-03-15T14:51:02.215Z,12.40
2023-03-15T14:53:35.738Z,12.45
2023-03-15T14:56:05.604Z,12.27
2023-03-15T14:58:32.643Z,12.21
2023-03-15T15:00:59.711Z,12.26
2023-03-15T15:03:41.373Z,12.15
2023-03-15T15:06:12.605Z,12.03
2023-03-15T15:08:43.045Z,11.98
2023-03-15T15:11:13.269Z,11.93
2023-03-15T15:13:41.199Z,11.57
2023-03-15T15:16:08.629Z,11.78
2023-03-15T15:18:37.176Z,11.80
2023-03-15T15:21:27.493Z,11.78
2023-03-15T15:23:59.189Z,11.71
2023-03-15T15:26:29.186Z,11.62
2023-03-15T15:29:00.882Z,11.45
2023-03-15T15:31:29.296Z,11.51
2023-03-15T15:33:57.536Z,11.51
2023-03-15T15:36:32.600Z,11.32
2023-03-15T15:39:06.384Z,11.27
2023-03-15T15:41:34.936Z,11.19
2023-03-15T15:44:02.244Z,11.15
2023-03-15T15:46:29.436Z,11.05
2023-03-15T15:48:56.623Z,10.85
2023-03-15T15:51:27.887Z,10.80
2023-03-15T15:54:02.157Z,10.84
2023-03-15T15:56:37.015Z,10.81
2023-03-15T15:59:05.182Z,10.83
2023-03-15T16:01:32.781Z,10.75
2023-03-15T16:04:01.843Z,10.75
2023-03-15T16:06:29.054Z,10.65
2023-03-15T16:08:56.348Z,10.32
2023-03-15T16:11:23.417Z,10.59
2023-03-15T16:13:54.173Z,10.48
2023-03-15T16:16:21.720Z,10.36
2023-03-15T16:18:49.010Z,10.33
2023-03-15T16:21:27.672Z,10.36
2023-03-15T16:24:03.501Z,10.24
2023-03-15T16:26:31.098Z,10.17
2023-03-15T16:28:58.405Z,10.22
2023-03-15T16:31:25.417Z,10.17
2023-03-15T16:33:52.545Z,10.09
2023-03-15T16:36:22.286Z,10.17
2023-03-15T16:38:49.522Z,10.13
2023-03-15T16:41:17.370Z,9.97
2023-03-15T16:43:45.438Z,9.67
2023-03-15T16:46:17.728Z,9.75
2023-03-15T16:48:45.031Z,9.66
2023-03-15T16:51:14.488Z,9.70
2023-03-15T16:53:44.720Z,9.66
2023-03-15T16:56:15.453Z,9.54
2023-03-15T16:58:44.183Z,9.38
2023-03-15T17:01:11.648Z,9.23
2023-03-15T17:03:38.942Z,9.01
2023-03-15T17:06:06.566Z,9.13
2023-03-15T17:08:33.739Z,9.26
2023-03-15T17:11:00.965Z,9.09
2023-03-15T17:13:30.775Z,8.91
2023-03-15T17:15:57.827Z,8.98
2023-03-15T17:18:26.868Z,8.99
2023-03-15T17:20:53.859Z,8.95
2023-03-15T17:23:21.526Z,8.94
2023-03-15T17:25:49.157Z,8.84
2023-03-15T17:28:16.495Z,8.81
2023-03-15T17:30:43.532Z,8.58
2023-03-15T17:33:11.431Z,9.00
2023-03-15T17:35:45.492Z,9.00
2023-03-15T17:38:21.819Z,8.98
2023-03-15T17:40:48.984Z,8.82
2023-03-15T17:43:17.262Z,8.81
2023-03-15T17:45:44.416Z,8.93
2023-03-15T17:48:11.787Z,8.87
2023-03-15T17:50:41.978Z,8.81
2023-03-15T17:53:18.555Z,8.79
2023-03-15T17:55:47.886Z,8.91
2023-03-15T17:58:33.549Z,8.98
2023-03-15T18:01:00.558Z,8.97
2023-03-15T18:03:27.747Z,8.96
2023-03-15T18:05:55.156Z,8.96
2023-03-15T18:08:22.434Z,8.97
2023-03-15T18:10:51.991Z,8.73
2023-03-15T18:13:23.399Z,8.71
2023-03-15T18:15:51.202Z,8.70
2023-03-15T18:18:18.930Z,8.77
2023-03-15T18:20:47.259Z,8.67
2023-03-15T18:23:16.660Z,8.72
2023-03-15T18:25:44.080Z,8.63
2023-03-15T18:28:11.423Z,8.53
2023-03-15T18:30:38.934Z,8.45
2023-03-15T18:33:06.152Z,8.56
2023-03-15T18:35:35.685Z,8.58
2023-03-15T18:38:04.178Z,8.49
2023-03-15T18:40:32.964Z,8.49
2023-03-15T18:43:02.697Z,8.43
2023-03-15T18:45:32.413Z,8.49
2023-03-15T18:48:02.333Z,8.51
2023-03-15T18:50:30.133Z,8.50
2023-03-15T18:52:58.122Z,8.36
2023-03-15T18:55:25.628Z,8.44
2023-03-15T18:57:55.146Z,8.42
2023-03-15T19:00:28.404Z,8.28
2023-03-15T19:02:57.725Z,8.37
2023-03-15T19:05:25.812Z,8.18
2023-03-15T19:07:53.370Z,8.25
2023-03-15T19:10:22.844Z,8.42
2023-03-15T19:12:52.492Z,8.40
2023-03-15T19:15:19.893Z,8.27
2023-03-15T19:17:49.491Z,8.28
2023-03-15T19:20:18.556Z,8.29
2023-03-15T19:22:45.384Z,8.29
2023-03-15T19:25:13.922Z,8.18
2023-03-15T19:27:42.142Z,8.16
2023-03-15T19:30:17.036Z,8.31
2023-03-15T19:32:47.006Z,8.37
2023-03-15T19:35:14.354Z,8.35
2023-03-15T19:37:42.613Z,8.41
2023-03-15T19:40:12.116Z,8.24
2023-03-15T19:42:39.166Z,8.18
2023-03-15T19:45:09.592Z,8.24
2023-03-15T19:47:36.811Z,8.17
2023-03-15T19:50:04.711Z,8.15
2023-03-15T19:52:33.267Z,8.26
2023-03-15T19:55:01.109Z,8.11
2023-03-15T19:57:29.705Z,8.17
2023-03-15T19:59:56.556Z,8.15
2023-03-15T20:02:23.437Z,8.13
2023-03-15T20:04:50.573Z,8.26
2023-03-15T20:07:17.999Z,8.24
2023-03-15T20:09:45.005Z,8.31
2023-03-15T20:12:13.626Z,8.19
2023-03-15T20:14:41.023Z,8.21
2023-03-15T20:17:08.394Z,8.39
2023-03-15T20:19:36.661Z,8.38
2023-03-15T20:22:04.207Z,8.19
2023-03-15T20:24:31.535Z,8.18
2023-03-15T20:26:58.729Z,8.34
2023-03-15T20:29:25.977Z,7.55
2023-03-15T20:31:55.754Z,7.99
2023-03-15T20:34:22.948Z,8.21
2023-03-15T20:36:52.796Z,7.88
2023-03-15T20:39:20.296Z,8.10
2023-03-15T20:41:47.244Z,8.10
2023-03-15T20:44:14.154Z,7.96
2023-03-15T20:46:41.534Z,7.91
2023-03-15T20:49:08.407Z,7.73
2023-03-15T20:51:36.166Z,7.70
2023-03-15T20:54:05.118Z,7.70
2023-03-15T20:56:34.283Z,7.63
2023-03-15T20:59:01.629Z,7.63
2023-03-15T21:01:29.409Z,7.36
2023-03-15T21:03:57.660Z,7.24
2023-03-15T21:06:25.428Z,7.07
2023-03-15T21:08:52.784Z,6.96
2023-03-15T21:11:20.669Z,6.91
2023-03-15T21:13:47.936Z,6.77
2023-03-15T21:16:15.332Z,6.60
2023-03-15T21:18:47.692Z,6.20
2023-03-15T21:21:18.493Z,6.28
2023-03-15T21:23:45.886Z,5.62
2023-03-15T21:26:14.081Z,5.68
2023-03-15T21:28:42.367Z,5.57
2023-03-15T21:31:11.146Z,4.89
2023-03-15T21:33:41.914Z,5.53
2023-03-15T21:36:09.151Z,5.44
2023-03-15T21:38:36.458Z,5.42
2023-03-15T21:41:09.206Z,5.46
2023-03-15T21:43:39.508Z,5.21
2023-03-15T21:46:10.120Z,5.14
2023-03-15T21:48:37.383Z,4.84
2023-03-15T21:51:08.447Z,4.92
2023-03-15T21:53:36.593Z,4.88
2023-03-15T21:56:04.090Z,4.82
2023-03-15T21:58:31.976Z,4.79
2023-03-15T22:01:07.919Z,4.74
2023-03-15T22:03:36.739Z,4.62
2023-03-15T22:06:04.129Z,4.65
2023-03-15T22:08:32.197Z,4.55
2023-03-15T22:10:59.199Z,4.55
2023-03-15T22:13:27.305Z,4.57
2023-03-15T22:15:54.210Z,4.50
2023-03-15T22:18:22.804Z,4.53
2023-03-15T22:20:51.536Z,4.52
2023-03-15T22:23:18.844Z,4.39
2023-03-15T22:25:45.886Z,4.32
2023-03-15T22:28:13.514Z,4.28
2023-03-15T22:30:41.005Z,4.14
2023-03-15T22:33:08.470Z,4.16
2023-03-15T22:35:35.714Z,4.11
2023-03-15T22:38:09.944Z,4.10
2023-03-15T22:40:40.012Z,4.12
2023-03-15T22:43:08.627Z,4.13
2023-03-15T22:45:35.859Z,4.04
2023-03-15T22:48:02.962Z,4.00
2023-03-15T22:50:29.897Z,3.96
2023-03-15T22:52:57.329Z,3.85
2023-03-15T22:55:26.129Z,3.81
2023-03-15T22:57:53.995Z,3.87
2023-03-15T23:00:22.634Z,3.91
2023-03-15T23:02:50.036Z,3.87
2023-03-15T23:05:19.504Z,3.78
2023-03-15T23:11:18.773Z,3.56
2023-03-15T23:13:48.889Z,3.56
2023-03-15T23:16:16.933Z,3.58
2023-03-15T23:18:44.274Z,3.55
2023-03-15T23:21:14.002Z,3.64
2023-03-15T23:23:43.026Z,3.52
2023-03-15T23:26:12.927Z,3.63
2023-03-15T23:28:40.030Z,3.57
2023-03-15T23:31:07.563Z,3.41
2023-03-15T23:33:35.056Z,3.48
2023-03-15T23:36:04.621Z,3.46
2023-03-15T23:38:34.597Z,3.34
2023-03-15T23:41:02.687Z,3.26
2023-03-15T23:43:29.635Z,3.26
2023-03-15T23:45:58.741Z,3.26
2023-03-15T23:48:26.432Z,3.13
2023-03-15T23:50:57.901Z,3.21
2023-03-15T23:53:25.713Z,3.06
2023-03-15T23:55:53.404Z,3.03
2023-03-15T23:58:21.366Z,3.08
